sensor_id;sensor_type;location;lat;lon;timestamp;pressure;altitude;pressure_sealevel;temperature;humidity
6506;BME280;3286;49.858;8.768;2023-02-22T00:02:19;99140.84;;;7.13;54.53
6506;BME280;3286;49.858;8.768;2023-02-22T00:04:53;99140.97;;;6.69;56.04
6506;BME280;3286;49.858;8.768;2023-02-22T00:07:20;99142.13;;;6.76;55.40
6506;BME280;3286;49.858;8.768;2023-02-22T00:09:48;99142.50;;;6.72;55.98
6506;BME280;3286;49.858;8.768;2023-02-22T00:12:16;99139.69;;;7.06;54.49
6506;BME280;3286;49.858;8.768;2023-02-22T00:14:44;99142.97;;;6.56;55.67
6506;BME280;3286;49.858;8.768;2023-02-22T00:17:11;99138.44;;;6.79;55.75
6506;BME280;3286;49.858;8.768;2023-02-22T00:19:38;99142.28;;;6.42;56.12
6506;BME280;3286;49.858;8.768;2023-02-22T00:22:04;99137.72;;;6.12;56.57
6506;BME280;3286;49.858;8.768;2023-02-22T00:24:31;99132.97;;;6.92;54.39
6506;BME280;3286;49.858;8.768;2023-02-22T00:27:00;99124.59;;;6.77;55.43
6506;BME280;3286;49.858;8.768;2023-02-22T00:29:29;99129.34;;;6.62;55.60
6506;BME280;3286;49.858;8.768;2023-02-22T00:31:55;99122.94;;;6.76;55.83
6506;BME280;3286;49.858;8.768;2023-02-22T00:34:22;99129.19;;;6.85;55.24
6506;BME280;3286;49.858;8.768;2023-02-22T00:36:49;99127.16;;;6.67;55.92
6506;BME280;3286;49.858;8.768;2023-02-22T00:39:16;99130.75;;;6.66;56.01
6506;BME280;3286;49.858;8.768;2023-02-22T00:41:43;99124.28;;;6.70;55.88
6506;BME280;3286;49.858;8.768;2023-02-22T00:44:10;99118.81;;;6.62;55.47
6506;BME280;3286;49.858;8.768;2023-02-22T00:46:38;99122.06;;;6.54;55.56
6506;BME280;3286;49.858;8.768;2023-02-22T00:49:05;99121.28;;;6.42;55.57
6506;BME280;3286;49.858;8.768;2023-02-22T00:51:32;99118.03;;;6.50;54.45
6506;BME280;3286;49.858;8.768;2023-02-22T00:53:59;99117.66;;;6.33;54.89
6506;BME280;3286;49.858;8.768;2023-02-22T00:56:25;99110.41;;;6.47;55.96
6506;BME280;3286;49.858;8.768;2023-02-22T00:58:52;99108.69;;;6.57;54.26
6506;BME280;3286;49.858;8.768;2023-02-22T01:01:19;99112.41;;;6.22;54.98
6506;BME280;3286;49.858;8.768;2023-02-22T01:03:47;99108.53;;;6.05;55.63
6506;BME280;3286;49.858;8.768;2023-02-22T01:06:14;99103.44;;;6.57;54.03
6506;BME280;3286;49.858;8.768;2023-02-22T01:08:43;99101.56;;;6.27;54.94
6506;BME280;3286;49.858;8.768;2023-02-22T01:11:09;99099.31;;;6.22;55.55
6506;BME280;3286;49.858;8.768;2023-02-22T01:13:36;99105.66;;;5.97;56.24
6506;BME280;3286;49.858;8.768;2023-02-22T01:16:03;99095.75;;;5.45;57.10
6506;BME280;3286;49.858;8.768;2023-02-22T01:18:32;99094.13;;;5.88;56.31
6506;BME280;3286;49.858;8.768;2023-02-22T01:21:01;99093.34;;;5.76;56.61
6506;BME280;3286;49.858;8.768;2023-02-22T01:23:28;99094.88;;;5.67;57.15
6506;BME280;3286;49.858;8.768;2023-02-22T01:25:55;99086.66;;;5.72;56.98
6506;BME280;3286;49.858;8.768;2023-02-22T01:28:21;99083.00;;;6.07;55.59
6506;BME280;3286;49.858;8.768;2023-02-22T01:30:48;99083.88;;;5.96;56.38
6506;BME280;3286;49.858;8.768;2023-02-22T01:33:15;99086.44;;;6.19;55.15
6506;BME280;3286;49.858;8.768;2023-02-22T01:35:42;99077.78;;;5.95;55.75
6506;BME280;3286;49.858;8.768;2023-02-22T01:38:12;99087.69;;;5.80;56.36
6506;BME280;3286;49.858;8.768;2023-02-22T01:40:41;99071.88;;;5.82;56.59
6506;BME280;3286;49.858;8.768;2023-02-22T01:43:19;99076.47;;;5.34;57.37
6506;BME280;3286;49.858;8.768;2023-02-22T01:45:54;99071.09;;;5.59;57.16
6506;BME280;3286;49.858;8.768;2023-02-22T01:48:27;99072.06;;;5.24;57.87
6506;BME280;3286;49.858;8.768;2023-02-22T01:50:59;99064.09;;;5.36;57.68
6506;BME280;3286;49.858;8.768;2023-02-22T01:53:32;99062.06;;;5.29;57.71
6506;BME280;3286;49.858;8.768;2023-02-22T01:56:00;99056.50;;;5.77;55.50
6506;BME280;3286;49.858;8.768;2023-02-22T01:58:29;99051.47;;;5.86;55.89
6506;BME280;3286;49.858;8.768;2023-02-22T02:00:58;99055.72;;;5.43;56.67
6506;BME280;3286;49.858;8.768;2023-02-22T02:03:28;99055.69;;;5.65;57.57
6506;BME280;3286;49.858;8.768;2023-02-22T02:06:00;99053.94;;;5.43;56.83
6506;BME280;3286;49.858;8.768;2023-02-22T02:08:34;99057.09;;;5.81;55.26
6506;BME280;3286;49.858;8.768;2023-02-22T02:11:03;99051.44;;;5.53;55.78
6506;BME280;3286;49.858;8.768;2023-02-22T02:13:30;99048.44;;;5.58;55.76
6506;BME280;3286;49.858;8.768;2023-02-22T02:15:57;99051.38;;;5.76;56.11
6506;BME280;3286;49.858;8.768;2023-02-22T02:18:25;99057.31;;;5.89;55.71
6506;BME280;3286;49.858;8.768;2023-02-22T02:21:09;99047.72;;;5.67;55.65
6506;BME280;3286;49.858;8.768;2023-02-22T02:24:11;99054.91;;;5.54;56.53
6506;BME280;3286;49.858;8.768;2023-02-22T02:27:06;99049.25;;;5.70;55.28
6506;BME280;3286;49.858;8.768;2023-02-22T02:30:21;99041.75;;;5.65;55.42
6506;BME280;3286;49.858;8.768;2023-02-22T02:32:59;99039.28;;;5.52;55.59
6506;BME280;3286;49.858;8.768;2023-02-22T02:35:34;99036.56;;;5.31;56.58
6506;BME280;3286;49.858;8.768;2023-02-22T02:38:09;99039.88;;;5.56;55.63
6506;BME280;3286;49.858;8.768;2023-02-22T02:40:40;99034.25;;;5.60;55.72
6506;BME280;3286;49.858;8.768;2023-02-22T02:43:16;99036.91;;;5.49;55.19
6506;BME280;3286;49.858;8.768;2023-02-22T02:45:49;99026.31;;;5.39;57.43
6506;BME280;3286;49.858;8.768;2023-02-22T02:48:20;99023.94;;;5.36;56.90
6506;BME280;3286;49.858;8.768;2023-02-22T02:50:51;99025.22;;;5.53;56.97
6506;BME280;3286;49.858;8.768;2023-02-22T02:53:24;99017.84;;;5.47;56.75
6506;BME280;3286;49.858;8.768;2023-02-22T02:55:52;99021.31;;;5.36;56.30
6506;BME280;3286;49.858;8.768;2023-02-22T02:58:21;99017.72;;;5.60;55.79
6506;BME280;3286;49.858;8.768;2023-02-22T03:00:51;99013.44;;;5.59;56.77
6506;BME280;3286;49.858;8.768;2023-02-22T03:03:43;99009.34;;;5.66;57.13
6506;BME280;3286;49.858;8.768;2023-02-22T03:09:18;99003.63;;;5.72;55.67
6506;BME280;3286;49.858;8.768;2023-02-22T03:11:57;98995.94;;;5.48;56.31
6506;BME280;3286;49.858;8.768;2023-02-22T03:14:37;98991.06;;;5.55;56.67
6506;BME280;3286;49.858;8.768;2023-02-22T03:17:15;98997.59;;;5.49;55.85
6506;BME280;3286;49.858;8.768;2023-02-22T03:19:49;98991.75;;;5.45;56.01
6506;BME280;3286;49.858;8.768;2023-02-22T03:22:20;98998.84;;;5.33;56.49
6506;BME280;3286;49.858;8.768;2023-02-22T03:24:50;98993.28;;;5.59;55.66
6506;BME280;3286;49.858;8.768;2023-02-22T03:27:23;98982.72;;;5.38;56.91
6506;BME280;3286;49.858;8.768;2023-02-22T03:29:54;98988.94;;;5.70;55.61
6506;BME280;3286;49.858;8.768;2023-02-22T03:32:28;98994.94;;;5.60;55.90
6506;BME280;3286;49.858;8.768;2023-02-22T03:35:00;98994.88;;;5.83;56.41
6506;BME280;3286;49.858;8.768;2023-02-22T03:37:31;98990.56;;;5.61;56.36
6506;BME280;3286;49.858;8.768;2023-02-22T03:40:01;99000.97;;;5.28;57.01
6506;BME280;3286;49.858;8.768;2023-02-22T03:42:39;98987.72;;;5.41;56.98
6506;BME280;3286;49.858;8.768;2023-02-22T03:45:08;98994.88;;;5.39;56.61
6506;BME280;3286;49.858;8.768;2023-02-22T03:47:40;98989.69;;;5.60;56.01
6506;BME280;3286;49.858;8.768;2023-02-22T03:50:11;98986.63;;;5.55;57.40
6506;BME280;3286;49.858;8.768;2023-02-22T03:52:40;98987.88;;;5.40;58.12
6506;BME280;3286;49.858;8.768;2023-02-22T03:55:09;98987.47;;;5.56;57.61
6506;BME280;3286;49.858;8.768;2023-02-22T03:57:39;98987.88;;;5.72;57.45
6506;BME280;3286;49.858;8.768;2023-02-22T04:00:08;98982.81;;;5.92;56.44
6506;BME280;3286;49.858;8.768;2023-02-22T04:02:35;98987.16;;;5.26;57.29
6506;BME280;3286;49.858;8.768;2023-02-22T04:05:02;98983.59;;;5.39;57.27
6506;BME280;3286;49.858;8.768;2023-02-22T04:07:30;98974.16;;;5.36;56.52
6506;BME280;3286;49.858;8.768;2023-02-22T04:09:57;98981.31;;;5.34;56.24
6506;BME280;3286;49.858;8.768;2023-02-22T04:12:23;98979.19;;;5.28;56.94
6506;BME280;3286;49.858;8.768;2023-02-22T04:14:50;98974.06;;;5.38;56.37
6506;BME280;3286;49.858;8.768;2023-02-22T04:17:16;98980.50;;;5.33;57.21
6506;BME280;3286;49.858;8.768;2023-02-22T04:19:43;98982.88;;;5.36;57.55
6506;BME280;3286;49.858;8.768;2023-02-22T04:22:10;98974.31;;;5.67;56.06
6506;BME280;3286;49.858;8.768;2023-02-22T04:24:38;98976.00;;;5.13;56.96
6506;BME280;3286;49.858;8.768;2023-02-22T04:27:04;98973.66;;;5.42;56.54
6506;BME280;3286;49.858;8.768;2023-02-22T04:29:31;98978.25;;;5.17;57.26
6506;BME280;3286;49.858;8.768;2023-02-22T04:31:58;98976.84;;;5.13;57.34
6506;BME280;3286;49.858;8.768;2023-02-22T04:34:24;98970.72;;;5.35;56.32
6506;BME280;3286;49.858;8.768;2023-02-22T04:36:51;98970.84;;;5.34;56.36
6506;BME280;3286;49.858;8.768;2023-02-22T04:39:18;98970.53;;;5.04;57.30
6506;BME280;3286;49.858;8.768;2023-02-22T04:41:46;98978.25;;;5.06;57.09
6506;BME280;3286;49.858;8.768;2023-02-22T04:44:13;98971.84;;;5.10;57.17
6506;BME280;3286;49.858;8.768;2023-02-22T04:46:39;98969.56;;;5.17;56.80
6506;BME280;3286;49.858;8.768;2023-02-22T04:49:06;98969.22;;;4.99;57.35
6506;BME280;3286;49.858;8.768;2023-02-22T04:51:33;98958.44;;;5.36;55.51
6506;BME280;3286;49.858;8.768;2023-02-22T04:54:00;98965.88;;;5.19;56.08
6506;BME280;3286;49.858;8.768;2023-02-22T04:56:26;98968.50;;;4.97;56.34
6506;BME280;3286;49.858;8.768;2023-02-22T04:58:55;98961.81;;;5.27;58.57
6506;BME280;3286;49.858;8.768;2023-02-22T05:01:21;98959.69;;;5.20;56.72
6506;BME280;3286;49.858;8.768;2023-02-22T05:03:48;98960.50;;;5.21;56.57
6506;BME280;3286;49.858;8.768;2023-02-22T05:06:15;98963.16;;;4.87;56.96
6506;BME280;3286;49.858;8.768;2023-02-22T05:08:42;98959.78;;;5.19;55.57
6506;BME280;3286;49.858;8.768;2023-02-22T05:11:08;98961.09;;;5.25;55.56
6506;BME280;3286;49.858;8.768;2023-02-22T05:13:35;98961.13;;;5.13;55.67
6506;BME280;3286;49.858;8.768;2023-02-22T05:16:04;98963.50;;;5.05;56.38
6506;BME280;3286;49.858;8.768;2023-02-22T05:18:30;98962.00;;;4.91;56.98
6506;BME280;3286;49.858;8.768;2023-02-22T05:20:57;98960.03;;;5.16;56.09
6506;BME280;3286;49.858;8.768;2023-02-22T05:23:23;98960.19;;;4.91;56.90
6506;BME280;3286;49.858;8.768;2023-02-22T05:25:50;98960.88;;;5.05;57.91
6506;BME280;3286;49.858;8.768;2023-02-22T05:28:17;98961.72;;;5.05;57.62
6506;BME280;3286;49.858;8.768;2023-02-22T05:30:43;98957.81;;;4.54;57.06
6506;BME280;3286;49.858;8.768;2023-02-22T05:33:11;98954.59;;;4.96;56.59
6506;BME280;3286;49.858;8.768;2023-02-22T05:35:38;98955.31;;;4.98;56.20
6506;BME280;3286;49.858;8.768;2023-02-22T05:38:05;98949.59;;;4.82;57.25
6506;BME280;3286;49.858;8.768;2023-02-22T05:40:32;98945.78;;;4.86;56.77
6506;BME280;3286;49.858;8.768;2023-02-22T05:42:59;98950.31;;;4.95;56.40
6506;BME280;3286;49.858;8.768;2023-02-22T05:45:26;98950.78;;;4.77;57.02
6506;BME280;3286;49.858;8.768;2023-02-22T05:47:54;98947.44;;;5.10;56.11
6506;BME280;3286;49.858;8.768;2023-02-22T05:50:22;98952.69;;;4.87;58.08
6506;BME280;3286;49.858;8.768;2023-02-22T05:52:49;98954.59;;;4.96;58.64
6506;BME280;3286;49.858;8.768;2023-02-22T05:55:18;98949.34;;;4.85;60.12
6506;BME280;3286;49.858;8.768;2023-02-22T05:57:45;98942.81;;;5.13;58.24
6506;BME280;3286;49.858;8.768;2023-02-22T06:00:15;98950.72;;;5.34;58.75
6506;BME280;3286;49.858;8.768;2023-02-22T06:02:41;98945.59;;;5.33;57.65
6506;BME280;3286;49.858;8.768;2023-02-22T06:05:08;98943.28;;;4.96;57.74
6506;BME280;3286;49.858;8.768;2023-02-22T06:07:36;98948.72;;;5.27;56.77
6506;BME280;3286;49.858;8.768;2023-02-22T06:10:03;98946.38;;;4.89;57.58
6506;BME280;3286;49.858;8.768;2023-02-22T06:12:30;98949.44;;;5.06;57.34
6506;BME280;3286;49.858;8.768;2023-02-22T06:14:57;98945.66;;;4.53;57.67
6506;BME280;3286;49.858;8.768;2023-02-22T06:17:23;98950.47;;;5.38;56.15
6506;BME280;3286;49.858;8.768;2023-02-22T06:19:50;98942.56;;;4.59;57.97
6506;BME280;3286;49.858;8.768;2023-02-22T06:22:17;98944.69;;;5.22;56.70
6506;BME280;3286;49.858;8.768;2023-02-22T06:24:45;98941.41;;;5.42;56.00
6506;BME280;3286;49.858;8.768;2023-02-22T06:27:12;98950.50;;;5.26;56.74
6506;BME280;3286;49.858;8.768;2023-02-22T06:29:43;98960.19;;;5.14;58.71
6506;BME280;3286;49.858;8.768;2023-02-22T06:32:10;98955.84;;;5.36;57.61
6506;BME280;3286;49.858;8.768;2023-02-22T06:34:37;98957.03;;;5.32;56.78
6506;BME280;3286;49.858;8.768;2023-02-22T06:37:05;98956.63;;;5.48;57.01
6506;BME280;3286;49.858;8.768;2023-02-22T06:39:32;98949.97;;;5.76;55.41
6506;BME280;3286;49.858;8.768;2023-02-22T06:41:59;98957.88;;;5.21;57.32
6506;BME280;3286;49.858;8.768;2023-02-22T06:44:26;98955.22;;;5.44;57.11
6506;BME280;3286;49.858;8.768;2023-02-22T06:46:53;98961.59;;;5.62;56.54
6506;BME280;3286;49.858;8.768;2023-02-22T06:49:20;98962.16;;;5.99;55.78
6506;BME280;3286;49.858;8.768;2023-02-22T06:51:47;98959.72;;;5.86;56.40
6506;BME280;3286;49.858;8.768;2023-02-22T06:54:14;98955.09;;;5.45;57.33
6506;BME280;3286;49.858;8.768;2023-02-22T06:56:40;98965.19;;;5.94;56.10
6506;BME280;3286;49.858;8.768;2023-02-22T06:59:08;98967.41;;;5.66;57.06
6506;BME280;3286;49.858;8.768;2023-02-22T07:01:35;98961.75;;;5.82;56.57
6506;BME280;3286;49.858;8.768;2023-02-22T07:04:02;98970.88;;;5.99;56.73
6506;BME280;3286;49.858;8.768;2023-02-22T07:06:28;98963.13;;;5.98;56.39
6506;BME280;3286;49.858;8.768;2023-02-22T07:08:55;98961.25;;;5.88;57.32
6506;BME280;3286;49.858;8.768;2023-02-22T07:11:22;98963.16;;;6.19;56.41
6506;BME280;3286;49.858;8.768;2023-02-22T07:13:48;98960.84;;;6.47;55.71
6506;BME280;3286;49.858;8.768;2023-02-22T07:16:16;98964.13;;;6.18;56.71
6506;BME280;3286;49.858;8.768;2023-02-22T07:18:43;98969.34;;;6.18;56.81
6506;BME280;3286;49.858;8.768;2023-02-22T07:21:10;98965.16;;;6.27;56.83
6506;BME280;3286;49.858;8.768;2023-02-22T07:23:37;98968.00;;;6.45;56.30
6506;BME280;3286;49.858;8.768;2023-02-22T07:26:04;98968.66;;;6.37;56.23
6506;BME280;3286;49.858;8.768;2023-02-22T07:28:30;98974.34;;;6.42;56.59
6506;BME280;3286;49.858;8.768;2023-02-22T07:30:57;98979.31;;;6.45;56.53
6506;BME280;3286;49.858;8.768;2023-02-22T07:33:27;98987.56;;;5.98;57.41
6506;BME280;3286;49.858;8.768;2023-02-22T07:35:53;98987.97;;;6.36;56.69
6506;BME280;3286;49.858;8.768;2023-02-22T07:38:20;98986.50;;;6.43;56.93
6506;BME280;3286;49.858;8.768;2023-02-22T07:40:47;98985.78;;;6.62;56.30
6506;BME280;3286;49.858;8.768;2023-02-22T07:43:15;98985.06;;;7.22;54.88
6506;BME280;3286;49.858;8.768;2023-02-22T07:45:42;98992.75;;;6.73;55.95
6506;BME280;3286;49.858;8.768;2023-02-22T07:48:09;99007.81;;;6.29;57.86
6506;BME280;3286;49.858;8.768;2023-02-22T07:50:39;98999.94;;;6.29;57.84
6506;BME280;3286;49.858;8.768;2023-02-22T07:53:14;98994.19;;;6.87;56.98
6506;BME280;3286;49.858;8.768;2023-02-22T07:55:42;98998.97;;;7.13;56.03
6506;BME280;3286;49.858;8.768;2023-02-22T07:58:14;98997.69;;;7.38;56.18
6506;BME280;3286;49.858;8.768;2023-02-22T08:00:41;99000.34;;;7.58;55.75
6506;BME280;3286;49.858;8.768;2023-02-22T08:03:10;98992.47;;;7.88;55.23
6506;BME280;3286;49.858;8.768;2023-02-22T08:05:40;98989.41;;;8.22;55.23
6506;BME280;3286;49.858;8.768;2023-02-22T08:08:07;98993.13;;;8.49;54.23
6506;BME280;3286;49.858;8.768;2023-02-22T08:10:34;98994.09;;;8.48;54.83
6506;BME280;3286;49.858;8.768;2023-02-22T08:13:03;98998.13;;;8.62;54.94
6506;BME280;3286;49.858;8.768;2023-02-22T08:15:32;98981.97;;;9.12;53.34
6506;BME280;3286;49.858;8.768;2023-02-22T08:18:00;98982.88;;;9.03;54.47
6506;BME280;3286;49.858;8.768;2023-02-22T08:20:28;98978.50;;;9.40;53.39
6506;BME280;3286;49.858;8.768;2023-02-22T08:22:57;98983.81;;;9.30;53.24
6506;BME280;3286;49.858;8.768;2023-02-22T08:25:25;98978.13;;;9.35;53.39
6506;BME280;3286;49.858;8.768;2023-02-22T08:27:56;98972.53;;;9.38;53.52
6506;BME280;3286;49.858;8.768;2023-02-22T08:30:26;98981.28;;;9.56;53.60
6506;BME280;3286;49.858;8.768;2023-02-22T08:32:53;98970.63;;;9.76;53.21
6506;BME280;3286;49.858;8.768;2023-02-22T08:35:20;98979.94;;;9.70;54.25
6506;BME280;3286;49.858;8.768;2023-02-22T08:37:48;98981.78;;;9.88;53.14
6506;BME280;3286;49.858;8.768;2023-02-22T08:42:45;98969.84;;;10.02;52.82
6506;BME280;3286;49.858;8.768;2023-02-22T08:45:12;98972.34;;;10.30;52.90
6506;BME280;3286;49.858;8.768;2023-02-22T08:47:39;98974.38;;;10.36;53.08
6506;BME280;3286;49.858;8.768;2023-02-22T08:50:07;98970.28;;;10.60;51.97
6506;BME280;3286;49.858;8.768;2023-02-22T08:52:34;98976.97;;;10.46;52.83
6506;BME280;3286;49.858;8.768;2023-02-22T08:55:01;98969.75;;;10.56;52.24
6506;BME280;3286;49.858;8.768;2023-02-22T08:57:29;98973.06;;;10.85;52.40
6506;BME280;3286;49.858;8.768;2023-02-22T08:59:56;98971.78;;;10.97;51.38
6506;BME280;3286;49.858;8.768;2023-02-22T09:02:22;98976.88;;;11.34;51.33
6506;BME280;3286;49.858;8.768;2023-02-22T09:04:49;98974.22;;;11.25;51.59
6506;BME280;3286;49.858;8.768;2023-02-22T09:07:17;98966.84;;;11.45;51.39
6506;BME280;3286;49.858;8.768;2023-02-22T09:09:44;98966.19;;;11.68;50.18
6506;BME280;3286;49.858;8.768;2023-02-22T09:12:11;98964.06;;;11.80;50.42
6506;BME280;3286;49.858;8.768;2023-02-22T09:14:39;98964.06;;;11.88;50.16
6506;BME280;3286;49.858;8.768;2023-02-22T09:17:07;98959.13;;;11.77;50.43
6506;BME280;3286;49.858;8.768;2023-02-22T09:19:34;98964.53;;;11.59;51.33
6506;BME280;3286;49.858;8.768;2023-02-22T09:22:00;98962.25;;;11.97;50.69
6506;BME280;3286;49.858;8.768;2023-02-22T09:24:27;98957.13;;;12.29;49.44
6506;BME280;3286;49.858;8.768;2023-02-22T09:26:53;98958.97;;;12.12;50.21
6506;BME280;3286;49.858;8.768;2023-02-22T09:29:21;98958.94;;;12.45;49.40
6506;BME280;3286;49.858;8.768;2023-02-22T09:31:51;98961.28;;;12.40;49.63
6506;BME280;3286;49.858;8.768;2023-02-22T09:34:20;98955.78;;;12.58;49.04
6506;BME280;3286;49.858;8.768;2023-02-22T09:36:47;98955.41;;;12.69;48.86
6506;BME280;3286;49.858;8.768;2023-02-22T09:39:16;98954.56;;;13.57;47.75
6506;BME280;3286;49.858;8.768;2023-02-22T09:41:48;98954.06;;;13.22;48.59
6506;BME280;3286;49.858;8.768;2023-02-22T09:44:22;98947.88;;;13.29;47.65
6506;BME280;3286;49.858;8.768;2023-02-22T09:46:51;98950.34;;;13.31;48.03
6506;BME280;3286;49.858;8.768;2023-02-22T09:49:22;98943.88;;;13.65;47.66
6506;BME280;3286;49.858;8.768;2023-02-22T09:51:54;98944.75;;;13.57;48.13
6506;BME280;3286;49.858;8.768;2023-02-22T09:54:28;98939.06;;;13.84;47.79
6506;BME280;3286;49.858;8.768;2023-02-22T09:57:01;98935.50;;;13.76;48.11
6506;BME280;3286;49.858;8.768;2023-02-22T09:59:30;98938.59;;;14.57;46.17
6506;BME280;3286;49.858;8.768;2023-02-22T10:02:16;98934.28;;;14.56;45.99
6506;BME280;3286;49.858;8.768;2023-02-22T10:04:49;98934.88;;;14.13;47.28
6506;BME280;3286;49.858;8.768;2023-02-22T10:07:22;98933.13;;;14.20;46.57
6506;BME280;3286;49.858;8.768;2023-02-22T10:09:51;98935.06;;;13.65;48.39
6506;BME280;3286;49.858;8.768;2023-02-22T10:12:27;98931.31;;;13.59;48.73
6506;BME280;3286;49.858;8.768;2023-02-22T10:15:19;98935.38;;;13.93;48.01
6506;BME280;3286;49.858;8.768;2023-02-22T10:17:57;98926.63;;;14.76;45.62
6506;BME280;3286;49.858;8.768;2023-02-22T10:20:38;98929.94;;;14.25;47.15
6506;BME280;3286;49.858;8.768;2023-02-22T10:23:14;98930.00;;;14.01;47.49
6506;BME280;3286;49.858;8.768;2023-02-22T10:25:51;98916.84;;;14.38;46.56
6506;BME280;3286;49.858;8.768;2023-02-22T10:28:22;98919.53;;;14.98;45.49
6506;BME280;3286;49.858;8.768;2023-02-22T10:30:53;98909.59;;;15.44;44.86
6506;BME280;3286;49.858;8.768;2023-02-22T10:33:27;98912.13;;;14.48;46.56
6506;BME280;3286;49.858;8.768;2023-02-22T10:35:56;98919.28;;;14.78;45.12
6506;BME280;3286;49.858;8.768;2023-02-22T10:38:25;98917.22;;;15.10;45.15
6506;BME280;3286;49.858;8.768;2023-02-22T10:40:55;98916.41;;;14.80;45.49
6506;BME280;3286;49.858;8.768;2023-02-22T10:43:23;98918.16;;;14.72;44.37
6506;BME280;3286;49.858;8.768;2023-02-22T10:45:52;98925.72;;;13.77;47.25
6506;BME280;3286;49.858;8.768;2023-02-22T10:48:21;98913.88;;;14.71;44.93
6506;BME280;3286;49.858;8.768;2023-02-22T10:50:53;98921.72;;;14.80;44.50
6506;BME280;3286;49.858;8.768;2023-02-22T10:53:25;98922.47;;;15.25;43.56
6506;BME280;3286;49.858;8.768;2023-02-22T10:56:22;98910.59;;;15.43;42.88
6506;BME280;3286;49.858;8.768;2023-02-22T10:58:53;98902.19;;;15.61;42.40
6506;BME280;3286;49.858;8.768;2023-02-22T11:01:23;98912.69;;;15.69;42.71
6506;BME280;3286;49.858;8.768;2023-02-22T11:04:00;98909.09;;;16.27;41.21
6506;BME280;3286;49.858;8.768;2023-02-22T11:06:30;98907.75;;;15.88;42.94
6506;BME280;3286;49.858;8.768;2023-02-22T11:09:05;98906.31;;;16.42;41.17
6506;BME280;3286;49.858;8.768;2023-02-22T11:11:39;98905.53;;;16.48;41.44
6506;BME280;3286;49.858;8.768;2023-02-22T11:14:06;98904.47;;;16.78;40.75
6506;BME280;3286;49.858;8.768;2023-02-22T11:16:36;98897.19;;;17.00;40.90
6506;BME280;3286;49.858;8.768;2023-02-22T11:19:11;98895.19;;;16.67;40.63
6506;BME280;3286;49.858;8.768;2023-02-22T11:21:40;98887.31;;;16.52;40.61
6506;BME280;3286;49.858;8.768;2023-02-22T11:24:09;98892.06;;;16.57;41.00
6506;BME280;3286;49.858;8.768;2023-02-22T11:26:40;98884.47;;;17.09;40.07
6506;BME280;3286;49.858;8.768;2023-02-22T11:29:17;98879.31;;;16.52;40.96
6506;BME280;3286;49.858;8.768;2023-02-22T11:31:45;98878.38;;;17.15;39.60
6506;BME280;3286;49.858;8.768;2023-02-22T11:34:29;98878.38;;;16.73;40.66
6506;BME280;3286;49.858;8.768;2023-02-22T11:37:15;98869.56;;;16.73;40.03
6506;BME280;3286;49.858;8.768;2023-02-22T11:39:42;98867.56;;;16.40;41.38
6506;BME280;3286;49.858;8.768;2023-02-22T11:42:23;98867.94;;;16.78;40.56
6506;BME280;3286;49.858;8.768;2023-02-22T11:45:07;98868.94;;;17.19;39.31
6506;BME280;3286;49.858;8.768;2023-02-22T11:47:35;98860.91;;;17.19;39.12
6506;BME280;3286;49.858;8.768;2023-02-22T11:50:09;98856.50;;;16.91;40.19
6506;BME280;3286;49.858;8.768;2023-02-22T11:52:43;98856.81;;;17.30;39.25
6506;BME280;3286;49.858;8.768;2023-02-22T11:55:16;98853.97;;;17.32;39.70
6506;BME280;3286;49.858;8.768;2023-02-22T11:57:56;98857.19;;;17.00;40.78
6506;BME280;3286;49.858;8.768;2023-02-22T12:00:33;98858.53;;;16.41;42.71
6506;BME280;3286;49.858;8.768;2023-02-22T12:03:18;98854.50;;;17.00;41.06
6506;BME280;3286;49.858;8.768;2023-02-22T12:06:12;98848.41;;;16.71;41.82
6506;BME280;3286;49.858;8.768;2023-02-22T12:08:53;98842.53;;;16.41;41.59
6506;BME280;3286;49.858;8.768;2023-02-22T12:11:27;98841.53;;;16.48;41.58
6506;BME280;3286;49.858;8.768;2023-02-22T12:14:08;98835.50;;;16.75;40.54
6506;BME280;3286;49.858;8.768;2023-02-22T12:17:05;98842.38;;;16.98;40.49
6506;BME280;3286;49.858;8.768;2023-02-22T12:19:35;98828.72;;;17.75;38.96
6506;BME280;3286;49.858;8.768;2023-02-22T12:22:07;98831.81;;;18.64;37.09
6506;BME280;3286;49.858;8.768;2023-02-22T12:24:39;98827.44;;;18.11;38.14
6506;BME280;3286;49.858;8.768;2023-02-22T12:27:10;98827.69;;;18.03;39.33
6506;BME280;3286;49.858;8.768;2023-02-22T12:29:43;98819.53;;;18.57;38.04
6506;BME280;3286;49.858;8.768;2023-02-22T12:32:14;98824.59;;;17.79;39.93
6506;BME280;3286;49.858;8.768;2023-02-22T12:34:44;98828.38;;;16.95;41.50
6506;BME280;3286;49.858;8.768;2023-02-22T12:37:17;98816.38;;;17.47;40.24
6506;BME280;3286;49.858;8.768;2023-02-22T12:39:52;98822.75;;;17.39;39.88
6506;BME280;3286;49.858;8.768;2023-02-22T12:42:25;98818.41;;;17.92;39.03
6506;BME280;3286;49.858;8.768;2023-02-22T12:44:58;98813.88;;;18.19;37.75
6506;BME280;3286;49.858;8.768;2023-02-22T12:47:33;98812.88;;;17.93;38.15
6506;BME280;3286;49.858;8.768;2023-02-22T12:50:08;98809.94;;;18.29;37.47
6506;BME280;3286;49.858;8.768;2023-02-22T12:52:44;98812.63;;;18.29;36.17
6506;BME280;3286;49.858;8.768;2023-02-22T12:55:17;98807.09;;;18.23;37.04
6506;BME280;3286;49.858;8.768;2023-02-22T12:57:50;98808.34;;;18.66;36.65
6506;BME280;3286;49.858;8.768;2023-02-22T13:00:21;98803.28;;;18.51;37.48
6506;BME280;3286;49.858;8.768;2023-02-22T13:02:59;98806.78;;;18.52;37.13
6506;BME280;3286;49.858;8.768;2023-02-22T13:05:29;98800.66;;;18.31;37.24
6506;BME280;3286;49.858;8.768;2023-02-22T13:08:08;98804.81;;;18.73;37.40
6506;BME280;3286;49.858;8.768;2023-02-22T13:10:52;98804.47;;;17.49;40.06
6506;BME280;3286;49.858;8.768;2023-02-22T13:13:25;98797.19;;;18.24;39.05
6506;BME280;3286;49.858;8.768;2023-02-22T13:15:56;98794.28;;;18.32;36.80
6506;BME280;3286;49.858;8.768;2023-02-22T13:18:28;98789.84;;;18.65;36.85
6506;BME280;3286;49.858;8.768;2023-02-22T13:21:02;98788.03;;;19.30;36.17
6506;BME280;3286;49.858;8.768;2023-02-22T13:23:38;98786.72;;;18.22;37.52
6506;BME280;3286;49.858;8.768;2023-02-22T13:26:17;98793.38;;;17.46;37.73
6506;BME280;3286;49.858;8.768;2023-02-22T13:28:50;98792.66;;;16.83;39.99
6506;BME280;3286;49.858;8.768;2023-02-22T13:31:42;98785.16;;;18.01;37.66
6506;BME280;3286;49.858;8.768;2023-02-22T13:37:21;98779.31;;;18.24;37.17
6506;BME280;3286;49.858;8.768;2023-02-22T13:40:15;98778.81;;;17.62;38.11
6506;BME280;3286;49.858;8.768;2023-02-22T13:43:03;98777.28;;;18.13;37.09
6506;BME280;3286;49.858;8.768;2023-02-22T13:45:47;98771.19;;;17.32;38.55
6506;BME280;3286;49.858;8.768;2023-02-22T13:48:39;98774.19;;;16.26;39.89
6506;BME280;3286;49.858;8.768;2023-02-22T13:51:32;98770.69;;;16.81;39.65
6506;BME280;3286;49.858;8.768;2023-02-22T13:54:03;98761.69;;;17.90;37.68
6506;BME280;3286;49.858;8.768;2023-02-22T13:56:31;98755.72;;;18.08;36.77
6506;BME280;3286;49.858;8.768;2023-02-22T13:59:01;98764.56;;;16.94;39.59